Time;durP1;ratioP1;P1;durP2;ratioP2;P2;SDS_P1;SDS_P2;PMS_P1;PMS_P2;Temp;Humidity;BMP_temperature;BMP_pressure;BME280_temperature;BME280_humidity;BME280_pressure;Samples;Min_cycle;Max_cycle;Signal;HPM_P1;HPM_P2
2022/04/24 00:01:55;;;;;;;10.15;7.53;;;;;;;;;;5033804;28;20428;-73
2022/04/24 00:04:24;;;;;;;10.90;7.82;;;;;;;;;;5029833;28;20060;-73
2022/04/24 00:06:53;;;;;;;12.25;7.57;;;;;;;;;;5030241;28;20132;-73
2022/04/24 00:09:22;;;;;;;11.68;8.57;;;;;;;;;;5032912;28;20530;-73
2022/04/24 00:11:49;;;;;;;8.90;7.30;;;;;;;;;;5037248;28;20045;-73
2022/04/24 00:14:17;;;;;;;10.40;7.80;;;;;;;;;;5029125;28;20055;-72
2022/04/24 00:16:45;;;;;;;10.40;7.32;;;;;;;;;;5030599;28;20132;-72
2022/04/24 00:19:15;;;;;;;12.40;7.10;;;;;;;;;;5034553;28;20084;-72
2022/04/24 00:21:42;;;;;;;10.55;7.57;;;;;;;;;;5029850;28;20500;-72
2022/04/24 00:24:09;;;;;;;10.07;7.07;;;;;;;;;;5030486;28;20359;-72
2022/04/24 00:26:38;;;;;;;11.38;7.22;;;;;;;;;;5035157;28;20092;-72
2022/04/24 00:29:06;;;;;;;10.43;6.68;;;;;;;;;;5032686;28;20058;-72
2022/04/24 00:31:33;;;;;;;8.45;7.07;;;;;;;;;;5038556;28;20041;-72
2022/04/24 00:34:00;;;;;;;7.63;6.75;;;;;;;;;;5031297;28;20064;-72
2022/04/24 00:36:27;;;;;;;8.68;6.75;;;;;;;;;;5031169;28;20119;-72
2022/04/24 00:38:55;;;;;;;10.75;6.78;;;;;;;;;;5025933;28;20061;-72
2022/04/24 00:41:22;;;;;;;11.10;6.70;;;;;;;;;;5032982;28;20530;-72
2022/04/24 00:43:54;;;;;;;7.55;6.38;;;;;;;;;;5040101;28;20146;-72
2022/04/24 00:46:28;;;;;;;10.88;6.05;;;;;;;;;;5036376;28;20072;-72
2022/04/24 00:48:55;;;;;;;9.30;6.35;;;;;;;;;;5033454;28;20053;-72
2022/04/24 00:51:23;;;;;;;10.68;7.07;;;;;;;;;;5034711;28;20064;-72
2022/04/24 00:53:50;;;;;;;7.70;6.55;;;;;;;;;;5038058;28;20056;-72
2022/04/24 00:56:18;;;;;;;8.13;6.10;;;;;;;;;;5034768;28;20056;-72
2022/04/24 00:58:46;;;;;;;8.50;6.50;;;;;;;;;;5041517;28;20208;-72
2022/04/24 01:01:14;;;;;;;9.90;5.95;;;;;;;;;;5032976;28;20056;-72
2022/04/24 01:03:42;;;;;;;8.43;6.97;;;;;;;;;;5034425;28;20462;-73
2022/04/24 01:06:09;;;;;;;8.07;6.25;;;;;;;;;;5039492;28;20061;-73
2022/04/24 01:08:37;;;;;;;11.57;6.25;;;;;;;;;;5043760;28;20128;-73
2022/04/24 01:11:04;;;;;;;8.50;6.15;;;;;;;;;;5035685;28;20057;-73
2022/04/24 01:13:31;;;;;;;9.15;6.13;;;;;;;;;;5034339;28;20451;-73
2022/04/24 01:15:59;;;;;;;8.55;6.35;;;;;;;;;;5034342;28;20064;-73
2022/04/24 01:18:28;;;;;;;10.77;5.88;;;;;;;;;;5038233;28;20217;-73
2022/04/24 01:20:57;;;;;;;11.00;6.10;;;;;;;;;;5034015;28;20085;-73
2022/04/24 01:23:24;;;;;;;9.90;6.72;;;;;;;;;;5038483;28;20056;-73
2022/04/24 01:25:51;;;;;;;8.55;6.43;;;;;;;;;;5037022;28;20122;-73
2022/04/24 01:28:19;;;;;;;8.77;5.97;;;;;;;;;;5037022;28;20098;-73
2022/04/24 01:30:46;;;;;;;11.93;6.55;;;;;;;;;;5031043;28;20057;-73
2022/04/24 01:33:13;;;;;;;9.80;6.70;;;;;;;;;;5045119;28;20207;-73
2022/04/24 01:35:41;;;;;;;8.77;6.45;;;;;;;;;;5035048;28;20416;-73
2022/04/24 01:38:09;;;;;;;11.43;7.18;;;;;;;;;;5037531;28;20049;-73
2022/04/24 01:40:37;;;;;;;7.78;6.63;;;;;;;;;;5032330;28;20447;-73
2022/04/24 01:43:04;;;;;;;8.20;7.07;;;;;;;;;;5035413;28;20096;-73
2022/04/24 01:45:32;;;;;;;9.48;6.88;;;;;;;;;;5037654;28;20052;-73
2022/04/24 01:47:59;;;;;;;8.25;7.00;;;;;;;;;;5033649;28;20049;-73
2022/04/24 01:50:26;;;;;;;9.25;7.13;;;;;;;;;;5038365;28;20053;-73
2022/04/24 01:52:54;;;;;;;7.80;6.40;;;;;;;;;;5026152;28;20455;-72
2022/04/24 01:55:22;;;;;;;7.35;6.25;;;;;;;;;;5035197;28;20067;-72
2022/04/24 01:57:50;;;;;;;7.63;6.15;;;;;;;;;;5039237;28;20107;-72
2022/04/24 02:00:17;;;;;;;7.85;6.97;;;;;;;;;;5037720;28;20049;-72
2022/04/24 02:02:46;;;;;;;10.20;6.88;;;;;;;;;;5036117;28;20053;-72
2022/04/24 02:05:13;;;;;;;9.20;6.30;;;;;;;;;;5040370;28;20060;-72
2022/04/24 02:07:40;;;;;;;12.05;6.85;;;;;;;;;;5032124;28;20041;-72
2022/04/24 02:10:08;;;;;;;9.10;7.55;;;;;;;;;;5032899;28;20496;-72
2022/04/24 02:12:40;;;;;;;10.80;7.30;;;;;;;;;;5036067;28;20044;-72
2022/04/24 02:15:08;;;;;;;9.70;7.40;;;;;;;;;;5032181;28;20503;-72
2022/04/24 02:17:35;;;;;;;9.75;6.75;;;;;;;;;;5037976;28;20041;-72
2022/04/24 02:20:02;;;;;;;13.13;7.30;;;;;;;;;;5036434;28;20466;-72
2022/04/24 02:22:33;;;;;;;12.77;7.03;;;;;;;;;;5035155;28;20056;-72
2022/04/24 02:25:01;;;;;;;9.18;6.68;;;;;;;;;;5035955;28;20061;-72
2022/04/24 02:27:28;;;;;;;11.43;7.28;;;;;;;;;;5031298;28;20045;-72
2022/04/24 02:29:57;;;;;;;12.50;7.07;;;;;;;;;;5039283;28;20068;-72
2022/04/24 02:32:24;;;;;;;8.82;7.20;;;;;;;;;;5034248;28;20052;-72
2022/04/24 02:34:51;;;;;;;10.38;7.13;;;;;;;;;;5031930;28;20420;-72
2022/04/24 02:37:19;;;;;;;9.68;7.13;;;;;;;;;;5037417;28;20048;-72
2022/04/24 02:39:46;;;;;;;9.52;6.85;;;;;;;;;;5038054;28;20049;-72
2022/04/24 02:42:13;;;;;;;10.00;7.50;;;;;;;;;;5027888;28;20049;-72
2022/04/24 02:44:40;;;;;;;10.25;7.65;;;;;;;;;;5037064;28;20056;-72
2022/04/24 02:47:09;;;;;;;9.65;7.03;;;;;;;;;;5035374;28;20052;-72
2022/04/24 02:49:36;;;;;;;12.63;6.88;;;;;;;;;;5037171;28;20107;-72
2022/04/24 02:52:04;;;;;;;9.82;7.13;;;;;;;;;;5034737;28;20056;-72
2022/04/24 02:54:31;;;;;;;11.65;8.13;;;;;;;;;;5033625;28;20186;-72
2022/04/24 02:56:59;;;;;;;9.43;7.00;;;;;;;;;;5030276;28;20057;-72
2022/04/24 02:59:26;;;;;;;11.00;7.07;;;;;;;;;;5032226;28;20141;-72
2022/04/24 03:01:54;;;;;;;11.77;7.18;;;;;;;;;;5030694;28;20064;-72
2022/04/24 03:04:23;;;;;;;9.52;6.88;;;;;;;;;;5042382;28;20049;-72
2022/04/24 03:06:50;;;;;;;10.45;7.35;;;;;;;;;;5030639;28;20077;-72
2022/04/24 03:09:17;;;;;;;9.18;6.93;;;;;;;;;;5034528;28;20050;-72
2022/04/24 03:11:44;;;;;;;9.00;7.30;;;;;;;;;;5040477;28;20056;-72
2022/04/24 03:14:12;;;;;;;12.00;7.25;;;;;;;;;;5036043;28;20516;-72
2022/04/24 03:16:39;;;;;;;10.13;6.85;;;;;;;;;;5041865;28;20060;-72
2022/04/24 03:19:06;;;;;;;9.65;7.10;;;;;;;;;;5027656;28;20068;-72
2022/04/24 03:21:35;;;;;;;11.82;7.40;;;;;;;;;;5032298;28;20056;-72
2022/04/24 03:24:02;;;;;;;9.60;7.13;;;;;;;;;;5030060;28;20464;-72
2022/04/24 03:26:29;;;;;;;9.43;7.60;;;;;;;;;;5036148;28;20446;-72
2022/04/24 03:28:57;;;;;;;12.90;7.82;;;;;;;;;;5036039;28;20056;-72
2022/04/24 03:31:24;;;;;;;11.02;7.97;;;;;;;;;;5043167;28;20542;-72
2022/04/24 03:33:52;;;;;;;11.73;8.18;;;;;;;;;;5038891;28;20049;-72
2022/04/24 03:36:19;;;;;;;14.18;8.00;;;;;;;;;;5043000;28;20053;-72
2022/04/24 03:38:48;;;;;;;12.82;8.07;;;;;;;;;;5040455;28;20496;-72
2022/04/24 03:41:15;;;;;;;11.40;8.15;;;;;;;;;;5035134;28;20143;-72
2022/04/24 03:43:42;;;;;;;13.75;8.02;;;;;;;;;;5033026;28;20049;-72
2022/04/24 03:46:10;;;;;;;16.75;8.15;;;;;;;;;;5037747;28;20534;-72
2022/04/24 03:48:37;;;;;;;12.80;8.18;;;;;;;;;;5035396;28;20080;-72
2022/04/24 03:51:05;;;;;;;12.82;7.05;;;;;;;;;;5041351;28;20496;-72
2022/04/24 03:53:32;;;;;;;14.55;7.82;;;;;;;;;;5036828;28;20099;-72
2022/04/24 03:56:01;;;;;;;10.02;6.97;;;;;;;;;;5032625;28;20053;-72
2022/04/24 03:58:28;;;;;;;14.90;7.20;;;;;;;;;;5038337;28;20048;-72
2022/04/24 04:00:55;;;;;;;13.93;7.40;;;;;;;;;;5040263;28;20530;-72
2022/04/24 04:03:22;;;;;;;13.77;7.55;;;;;;;;;;5033037;28;20060;-72
2022/04/24 04:05:49;;;;;;;14.38;7.15;;;;;;;;;;5036464;28;20049;-72
2022/04/24 04:08:17;;;;;;;12.98;7.03;;;;;;;;;;5027447;28;20438;-72
2022/04/24 04:10:44;;;;;;;11.63;7.30;;;;;;;;;;5039194;28;20049;-72
2022/04/24 04:13:13;;;;;;;10.32;7.00;;;;;;;;;;5037261;28;20065;-72
2022/04/24 04:15:41;;;;;;;11.15;6.78;;;;;;;;;;5030448;28;20088;-72
2022/04/24 04:18:08;;;;;;;13.27;7.13;;;;;;;;;;5034231;28;20575;-72
2022/04/24 04:20:35;;;;;;;12.00;6.72;;;;;;;;;;5035527;28;20100;-72
2022/04/24 04:23:03;;;;;;;11.77;6.93;;;;;;;;;;5041445;28;20587;-72
2022/04/24 04:25:30;;;;;;;11.60;7.13;;;;;;;;;;5035972;28;20099;-72
2022/04/24 04:27:58;;;;;;;11.43;6.70;;;;;;;;;;5040604;28;20045;-72
2022/04/24 04:30:26;;;;;;;14.38;6.97;;;;;;;;;;5033477;28;20495;-72
2022/04/24 04:32:54;;;;;;;8.85;6.60;;;;;;;;;;5033933;28;20115;-72
2022/04/24 04:35:23;;;;;;;16.67;6.97;;;;;;;;;;5032155;28;20045;-72
2022/04/24 04:37:51;;;;;;;13.57;7.03;;;;;;;;;;5036704;28;20049;-72
2022/04/24 04:40:20;;;;;;;12.25;6.78;;;;;;;;;;5038690;28;20082;-72
2022/04/24 04:42:49;;;;;;;12.73;6.88;;;;;;;;;;5034156;28;20053;-72
2022/04/24 04:45:16;;;;;;;14.32;7.10;;;;;;;;;;5039010;28;20044;-72
2022/04/24 04:47:45;;;;;;;12.32;7.00;;;;;;;;;;5035717;28;20710;-72
2022/04/24 04:50:12;;;;;;;11.63;7.22;;;;;;;;;;5039607;28;20068;-72
2022/04/24 04:52:39;;;;;;;14.70;7.50;;;;;;;;;;5034173;28;20055;-72
2022/04/24 04:55:07;;;;;;;12.93;7.07;;;;;;;;;;5033543;28;20057;-72
2022/04/24 04:57:34;;;;;;;19.13;7.60;;;;;;;;;;5037297;28;20099;-72
2022/04/24 05:00:01;;;;;;;18.10;8.73;;;;;;;;;;5032938;28;20057;-72
2022/04/24 05:02:29;;;;;;;10.55;6.60;;;;;;;;;;5036447;28;20079;-72
2022/04/24 05:04:57;;;;;;;15.50;7.65;;;;;;;;;;5033594;28;20053;-72
2022/04/24 05:07:25;;;;;;;20.15;7.72;;;;;;;;;;5023854;28;20145;-72
2022/04/24 05:09:52;;;;;;;12.95;7.45;;;;;;;;;;5035786;28;20503;-72
2022/04/24 05:12:19;;;;;;;12.73;7.35;;;;;;;;;;5034977;28;20053;-72
2022/04/24 05:14:47;;;;;;;14.52;6.78;;;;;;;;;;5037313;28;20056;-72
2022/04/24 05:17:14;;;;;;;12.57;7.25;;;;;;;;;;5033252;28;20527;-72
2022/04/24 05:19:41;;;;;;;10.13;6.85;;;;;;;;;;5042240;28;20521;-72
2022/04/24 05:22:10;;;;;;;9.80;6.32;;;;;;;;;;5041304;28;20061;-72
2022/04/24 05:24:37;;;;;;;16.20;6.75;;;;;;;;;;5031198;28;20053;-72
2022/04/24 05:27:05;;;;;;;11.55;6.75;;;;;;;;;;5042480;28;20126;-72
2022/04/24 05:29:33;;;;;;;10.20;6.47;;;;;;;;;;5038376;28;20480;-72
2022/04/24 05:32:00;;;;;;;10.38;6.95;;;;;;;;;;5046960;28;20483;-72
2022/04/24 05:34:27;;;;;;;13.50;7.38;;;;;;;;;;5031657;28;20046;-72
2022/04/24 05:36:54;;;;;;;9.57;6.45;;;;;;;;;;5038653;28;20057;-72
2022/04/24 05:39:23;;;;;;;12.27;6.63;;;;;;;;;;5031715;28;20056;-72
2022/04/24 05:41:50;;;;;;;11.75;6.93;;;;;;;;;;5035890;28;20057;-72
2022/04/24 05:44:17;;;;;;;12.00;6.53;;;;;;;;;;5030398;28;20051;-72
2022/04/24 05:46:44;;;;;;;12.30;6.65;;;;;;;;;;5035228;28;20416;-72
2022/04/24 05:49:12;;;;;;;8.77;6.22;;;;;;;;;;5035900;28;20050;-72
2022/04/24 05:51:39;;;;;;;10.57;6.88;;;;;;;;;;5035320;28;20148;-72
2022/04/24 05:54:06;;;;;;;13.00;7.18;;;;;;;;;;5043015;28;20056;-72
2022/04/24 05:56:35;;;;;;;13.43;6.38;;;;;;;;;;5041368;28;20580;-72
2022/04/24 05:59:02;;;;;;;9.25;6.00;;;;;;;;;;5041058;28;20045;-72
2022/04/24 06:01:29;;;;;;;11.70;6.78;;;;;;;;;;5042793;28;20056;-72
2022/04/24 06:03:56;;;;;;;12.38;6.72;;;;;;;;;;5039023;28;20399;-72
2022/04/24 06:06:24;;;;;;;13.43;7.03;;;;;;;;;;5040176;28;20213;-72
2022/04/24 06:08:51;;;;;;;10.60;6.32;;;;;;;;;;5038208;28;20103;-72
2022/04/24 06:11:19;;;;;;;12.75;6.70;;;;;;;;;;5036630;28;20052;-72
2022/04/24 06:13:47;;;;;;;11.50;6.45;;;;;;;;;;5036148;28;20060;-72
2022/04/24 06:16:14;;;;;;;9.32;5.78;;;;;;;;;;5038205;28;20541;-72
2022/04/24 06:18:42;;;;;;;13.30;6.13;;;;;;;;;;5036110;28;20056;-72
2022/04/24 06:21:09;;;;;;;10.65;5.53;;;;;;;;;;5037595;28;20061;-72
2022/04/24 06:23:36;;;;;;;8.27;5.15;;;;;;;;;;5037486;28;20057;-72
2022/04/24 06:26:03;;;;;;;8.63;5.00;;;;;;;;;;5037725;28;20057;-72
2022/04/24 06:28:30;;;;;;;13.35;5.18;;;;;;;;;;5038062;28;20544;-72
2022/04/24 06:30:59;;;;;;;8.48;4.30;;;;;;;;;;5040873;28;20053;-72
2022/04/24 06:33:27;;;;;;;10.10;4.63;;;;;;;;;;5039676;28;20253;-72
2022/04/24 06:35:55;;;;;;;9.18;4.47;;;;;;;;;;5039043;28;20114;-72
2022/04/24 06:38:23;;;;;;;8.80;4.07;;;;;;;;;;5037842;28;20052;-73
2022/04/24 06:40:50;;;;;;;10.70;3.85;;;;;;;;;;5037843;28;20617;-72
2022/04/24 06:43:17;;;;;;;8.73;3.72;;;;;;;;;;5036675;28;20535;-72
2022/04/24 06:45:45;;;;;;;5.72;3.50;;;;;;;;;;5035661;28;20056;-72
2022/04/24 06:48:14;;;;;;;6.90;3.33;;;;;;;;;;5041222;28;20056;-72
2022/04/24 06:50:42;;;;;;;7.80;3.33;;;;;;;;;;5038160;28;20057;-73
2022/04/24 06:53:10;;;;;;;7.10;3.28;;;;;;;;;;5041048;28;20053;-72
2022/04/24 06:55:38;;;;;;;8.88;3.17;;;;;;;;;;5037914;28;20057;-73
2022/04/24 06:58:06;;;;;;;9.30;3.25;;;;;;;;;;5038312;28;20060;-73
2022/04/24 07:00:34;;;;;;;9.55;3.10;;;;;;;;;;5037187;28;20093;-72
2022/04/24 07:03:01;;;;;;;6.78;2.92;;;;;;;;;;5036871;28;20427;-72
2022/04/24 07:05:30;;;;;;;7.00;2.60;;;;;;;;;;5034900;28;20059;-72
2022/04/24 07:07:57;;;;;;;10.40;2.85;;;;;;;;;;5033989;28;20049;-72
2022/04/24 07:10:24;;;;;;;7.03;2.95;;;;;;;;;;5037092;28;20130;-72
2022/04/24 07:12:52;;;;;;;5.97;2.40;;;;;;;;;;5037048;28;20459;-72
2022/04/24 07:15:20;;;;;;;7.50;2.15;;;;;;;;;;5035809;28;20529;-72
2022/04/24 07:17:47;;;;;;;8.32;3.38;;;;;;;;;;5034424;28;20056;-72
2022/04/24 07:20:15;;;;;;;7.20;2.88;;;;;;;;;;5036229;28;20044;-72
2022/04/24 07:22:48;;;;;;;7.03;2.78;;;;;;;;;;5035369;28;20068;-72
2022/04/24 07:25:15;;;;;;;8.52;2.85;;;;;;;;;;5036596;28;20052;-72
2022/04/24 07:27:42;;;;;;;9.20;2.85;;;;;;;;;;5037853;28;20048;-72
2022/04/24 07:30:13;;;;;;;9.88;3.25;;;;;;;;;;5034816;28;20790;-72
2022/04/24 07:32:44;;;;;;;9.38;3.08;;;;;;;;;;5033929;28;20061;-72
2022/04/24 07:35:13;;;;;;;10.13;2.92;;;;;;;;;;5034571;28;20107;-72
2022/04/24 07:37:40;;;;;;;7.38;2.90;;;;;;;;;;5038992;28;20806;-72
2022/04/24 07:40:10;;;;;;;8.27;2.42;;;;;;;;;;5034177;28;20049;-72
2022/04/24 07:42:47;;;;;;;8.07;2.65;;;;;;;;;;5034833;28;20416;-72
2022/04/24 07:45:18;;;;;;;8.20;2.45;;;;;;;;;;5036247;28;20048;-72
2022/04/24 07:47:46;;;;;;;6.70;2.88;;;;;;;;;;5037096;28;20106;-72
2022/04/24 07:50:13;;;;;;;5.10;2.05;;;;;;;;;;5034037;28;20473;-72
2022/04/24 07:52:40;;;;;;;6.65;2.55;;;;;;;;;;5037927;28;20053;-72
2022/04/24 07:55:11;;;;;;;5.47;2.25;;;;;;;;;;5036875;28;20049;-72
2022/04/24 07:57:38;;;;;;;4.35;1.70;;;;;;;;;;5035785;28;20060;-72
2022/04/24 08:00:07;;;;;;;4.97;2.20;;;;;;;;;;5036398;28;20052;-72
2022/04/24 08:02:34;;;;;;;6.78;1.90;;;;;;;;;;5035442;28;20745;-72
2022/04/24 08:05:01;;;;;;;4.00;2.05;;;;;;;;;;5032030;28;20907;-72
2022/04/24 08:07:28;;;;;;;6.72;2.30;;;;;;;;;;5031310;28;20061;-72
2022/04/24 08:09:55;;;;;;;6.80;2.30;;;;;;;;;;5035653;28;20049;-72
2022/04/24 08:12:24;;;;;;;9.57;2.33;;;;;;;;;;5034095;28;20060;-72
2022/04/24 08:14:51;;;;;;;7.75;2.08;;;;;;;;;;5037253;28;20057;-72
2022/04/24 08:17:18;;;;;;;5.13;2.00;;;;;;;;;;5035991;28;20048;-72
2022/04/24 08:19:46;;;;;;;7.38;2.63;;;;;;;;;;5036012;28;20057;-72
2022/04/24 08:22:13;;;;;;;4.50;1.83;;;;;;;;;;5038414;28;20052;-72
2022/04/24 08:24:40;;;;;;;5.00;1.90;;;;;;;;;;5039343;28;20063;-72
2022/04/24 08:27:07;;;;;;;6.45;2.25;;;;;;;;;;5035716;28;20432;-72
2022/04/24 08:29:36;;;;;;;6.50;2.70;;;;;;;;;;5029839;28;20484;-72
2022/04/24 08:32:03;;;;;;;6.65;2.50;;;;;;;;;;5033628;28;20114;-73
2022/04/24 08:34:30;;;;;;;8.73;2.40;;;;;;;;;;5033006;28;20061;-73
2022/04/24 08:36:57;;;;;;;9.60;2.60;;;;;;;;;;5034275;28;20505;-73
2022/04/24 08:39:25;;;;;;;10.07;2.60;;;;;;;;;;5032601;28;20033;-73
2022/04/24 08:41:52;;;;;;;9.40;2.45;;;;;;;;;;5035849;28;20106;-73
2022/04/24 08:44:20;;;;;;;7.38;2.20;;;;;;;;;;5037082;28;20041;-72
2022/04/24 08:46:48;;;;;;;7.45;2.58;;;;;;;;;;5038891;28;20052;-73
2022/04/24 08:49:16;;;;;;;12.43;2.72;;;;;;;;;;5031105;28;20134;-73
2022/04/24 08:51:43;;;;;;;9.43;2.97;;;;;;;;;;5033442;28;20049;-73
2022/04/24 08:54:12;;;;;;;6.15;2.55;;;;;;;;;;5031700;28;20048;-73
2022/04/24 08:56:39;;;;;;;7.07;2.58;;;;;;;;;;5038664;28;20048;-73
2022/04/24 08:59:07;;;;;;;8.95;2.88;;;;;;;;;;5034541;28;20053;-72
2022/04/24 09:01:34;;;;;;;13.05;2.95;;;;;;;;;;5037569;28;20049;-72
2022/04/24 09:04:03;;;;;;;21.08;3.67;;;;;;;;;;5038242;28;20571;-72
2022/04/24 09:06:30;;;;;;;10.32;3.45;;;;;;;;;;5035279;28;20046;-72
2022/04/24 09:09:05;;;;;;;7.18;3.20;;;;;;;;;;5038106;28;20056;-72
2022/04/24 09:11:33;;;;;;;8.60;3.40;;;;;;;;;;5039141;28;20080;-72
2022/04/24 09:14:17;;;;;;;9.02;3.30;;;;;;;;;;5036256;28;20500;-72
2022/04/24 09:16:47;;;;;;;10.65;3.30;;;;;;;;;;5039318;28;20444;-72
2022/04/24 09:19:20;;;;;;;15.65;3.20;;;;;;;;;;5039693;28;20811;-72
2022/04/24 09:21:47;;;;;;;5.78;2.40;;;;;;;;;;5039651;28;20052;-72
2022/04/24 09:24:14;;;;;;;8.93;2.47;;;;;;;;;;5036683;28;20131;-72
2022/04/24 09:26:51;;;;;;;7.05;2.58;;;;;;;;;;5038206;28;20597;-72
2022/04/24 09:29:18;;;;;;;5.90;2.38;;;;;;;;;;5040579;28;20088;-73
2022/04/24 09:31:46;;;;;;;4.25;2.10;;;;;;;;;;5041471;28;20041;-73
2022/04/24 09:34:14;;;;;;;5.38;2.33;;;;;;;;;;5039399;28;20089;-73
2022/04/24 09:36:42;;;;;;;20.40;2.90;;;;;;;;;;5039975;28;20061;-73
2022/04/24 09:39:09;;;;;;;7.38;2.40;;;;;;;;;;5040029;28;20106;-73
2022/04/24 09:41:38;;;;;;;10.38;2.83;;;;;;;;;;5039349;28;20053;-73
2022/04/24 09:44:12;;;;;;;4.72;1.58;;;;;;;;;;5040989;28;20080;-72
2022/04/24 09:46:39;;;;;;;7.70;2.13;;;;;;;;;;5040685;28;20089;-72
2022/04/24 09:49:09;;;;;;;11.25;2.30;;;;;;;;;;5035252;28;20052;-72
2022/04/24 09:51:39;;;;;;;7.85;2.30;;;;;;;;;;5037110;28;20049;-72
2022/04/24 09:54:08;;;;;;;6.15;2.10;;;;;;;;;;5037996;28;20118;-72
2022/04/24 09:56:35;;;;;;;13.90;2.35;;;;;;;;;;5040968;28;20455;-72
2022/04/24 09:59:03;;;;;;;10.05;2.20;;;;;;;;;;5040379;28;20055;-72
2022/04/24 10:01:30;;;;;;;95.30;4.95;;;;;;;;;;5036221;28;20053;-72
2022/04/24 10:03:58;;;;;;;5.70;1.92;;;;;;;;;;5035168;28;20069;-73
2022/04/24 10:06:25;;;;;;;8.57;2.30;;;;;;;;;;5038187;28;20099;-73
2022/04/24 10:08:52;;;;;;;8.50;2.00;;;;;;;;;;5040159;28;20072;-73
2022/04/24 10:11:21;;;;;;;5.68;1.70;;;;;;;;;;5034433;28;20056;-73
2022/04/24 10:13:50;;;;;;;8.82;2.28;;;;;;;;;;5035588;28;20056;-73
2022/04/24 10:16:24;;;;;;;12.65;3.30;;;;;;;;;;5038614;28;20053;-73
2022/04/24 10:18:56;;;;;;;28.35;3.70;;;;;;;;;;5038075;28;20103;-73
2022/04/24 10:21:38;;;;;;;9.90;2.70;;;;;;;;;;5038015;28;20091;-73
2022/04/24 10:24:09;;;;;;;11.98;2.60;;;;;;;;;;5034576;28;20049;-73
2022/04/24 10:26:40;;;;;;;11.60;2.92;;;;;;;;;;5034673;28;20056;-73
2022/04/24 10:29:09;;;;;;;13.57;2.70;;;;;;;;;;5035550;28;20084;-73
2022/04/24 10:31:43;;;;;;;12.25;3.00;;;;;;;;;;5038374;28;20064;-73
2022/04/24 10:34:11;;;;;;;8.65;2.95;;;;;;;;;;5039024;28;20135;-73
2022/04/24 10:36:38;;;;;;;9.25;2.72;;;;;;;;;;5042548;28;20680;-73
2022/04/24 10:39:16;;;;;;;10.60;3.05;;;;;;;;;;5038775;28;20059;-73
2022/04/24 10:41:54;;;;;;;5.05;2.10;;;;;;;;;;5035170;28;20483;-73
2022/04/24 10:44:22;;;;;;;12.85;2.45;;;;;;;;;;5036915;28;20061;-73
2022/04/24 10:46:50;;;;;;;8.32;2.30;;;;;;;;;;5037273;28;20085;-73
2022/04/24 10:49:18;;;;;;;11.25;2.97;;;;;;;;;;5040359;28;20052;-73
2022/04/24 10:51:46;;;;;;;13.20;2.92;;;;;;;;;;5042456;28;20044;-73
2022/04/24 10:54:14;;;;;;;9.45;2.63;;;;;;;;;;5047217;28;20052;-73
2022/04/24 10:56:42;;;;;;;8.32;2.70;;;;;;;;;;5041959;28;20057;-73
2022/04/24 10:59:12;;;;;;;10.95;2.63;;;;;;;;;;5042145;28;20107;-73
2022/04/24 11:01:40;;;;;;;6.43;2.22;;;;;;;;;;5044024;28;20052;-73
2022/04/24 11:04:07;;;;;;;29.45;3.13;;;;;;;;;;5037575;28;20057;-73
2022/04/24 11:06:34;;;;;;;11.38;2.90;;;;;;;;;;5038065;28;20617;-73
2022/04/24 11:09:09;;;;;;;11.32;2.80;;;;;;;;;;5048853;28;20528;-73
2022/04/24 11:11:45;;;;;;;13.13;2.97;;;;;;;;;;5038604;28;20044;-73
2022/04/24 11:14:14;;;;;;;11.27;3.25;;;;;;;;;;5041145;28;20098;-73
2022/04/24 11:16:48;;;;;;;10.05;2.80;;;;;;;;;;5039069;28;20083;-73
2022/04/24 11:19:21;;;;;;;9.77;3.33;;;;;;;;;;5040108;28;20056;-73
2022/04/24 11:21:48;;;;;;;13.95;3.40;;;;;;;;;;5033765;28;20057;-73
2022/04/24 11:24:19;;;;;;;10.43;3.00;;;;;;;;;;5033324;28;20049;-73
2022/04/24 11:26:48;;;;;;;9.20;3.03;;;;;;;;;;5034263;28;20045;-73
2022/04/24 11:29:16;;;;;;;8.88;2.83;;;;;;;;;;5042685;28;20053;-73
2022/04/24 11:31:48;;;;;;;6.60;2.95;;;;;;;;;;5036933;28;20103;-73
2022/04/24 11:34:17;;;;;;;7.50;3.03;;;;;;;;;;5040754;28;20052;-73
2022/04/24 11:36:45;;;;;;;14.95;3.20;;;;;;;;;;5034734;28;20049;-73
2022/04/24 11:39:12;;;;;;;12.70;3.65;;;;;;;;;;5037394;28;20458;-73
2022/04/24 11:41:40;;;;;;;16.67;4.05;;;;;;;;;;5028881;28;20111;-73
2022/04/24 11:50:13;;;;;;;11.65;3.47;;;;;;;;;;5037124;28;20060;-73
2022/04/24 11:52:30;;;;;;;16.73;4.50;;;;;;;;;;5032954;28;20491;-73
2022/04/24 11:54:57;;;;;;;9.45;4.30;;;;;;;;;;5038528;28;20057;-73
2022/04/24 11:57:26;;;;;;;14.95;4.30;;;;;;;;;;5040091;28;20049;-73
2022/04/24 11:59:54;;;;;;;10.48;3.92;;;;;;;;;;5039254;28;20552;-73
2022/04/24 12:02:25;;;;;;;10.52;4.00;;;;;;;;;;5038252;28;20518;-73
2022/04/24 12:04:53;;;;;;;11.20;4.13;;;;;;;;;;5039277;28;20672;-73
2022/04/24 12:07:20;;;;;;;9.25;4.13;;;;;;;;;;5034180;28;20067;-73
2022/04/24 12:09:57;;;;;;;9.70;4.38;;;;;;;;;;5036730;28;20056;-73
2022/04/24 12:12:25;;;;;;;10.40;4.07;;;;;;;;;;5040073;28;20048;-73
2022/04/24 12:14:53;;;;;;;7.30;3.92;;;;;;;;;;5033829;28;20061;-73
2022/04/24 12:17:20;;;;;;;14.57;3.90;;;;;;;;;;5037082;28;20056;-73
2022/04/24 12:19:52;;;;;;;25.65;4.43;;;;;;;;;;5041337;28;20575;-73
2022/04/24 12:22:27;;;;;;;9.23;4.10;;;;;;;;;;5038941;28;20053;-73
2022/04/24 12:24:55;;;;;;;10.00;3.67;;;;;;;;;;5033219;28;20544;-73
2022/04/24 12:27:22;;;;;;;15.77;3.78;;;;;;;;;;5035359;28;20056;-73
2022/04/24 12:29:50;;;;;;;8.52;3.67;;;;;;;;;;5039758;28;20049;-73
2022/04/24 12:32:17;;;;;;;9.75;3.92;;;;;;;;;;5037720;28;20045;-73
2022/04/24 12:34:45;;;;;;;12.32;3.58;;;;;;;;;;5030719;28;20056;-73
2022/04/24 12:37:15;;;;;;;7.15;3.92;;;;;;;;;;5035696;28;20456;-73
2022/04/24 12:39:53;;;;;;;7.10;3.63;;;;;;;;;;5033659;28;20065;-73
2022/04/24 12:42:21;;;;;;;8.15;3.75;;;;;;;;;;5034477;28;20392;-73
2022/04/24 12:44:50;;;;;;;6.35;3.58;;;;;;;;;;5038883;28;20061;-73
2022/04/24 12:47:17;;;;;;;7.30;3.42;;;;;;;;;;5035885;28;20054;-74
2022/04/24 12:49:45;;;;;;;9.38;3.22;;;;;;;;;;5042311;28;20052;-73
2022/04/24 12:52:14;;;;;;;8.10;3.65;;;;;;;;;;5037949;28;20096;-73
2022/04/24 12:54:41;;;;;;;6.70;3.15;;;;;;;;;;5036580;28;20110;-73
2022/04/24 12:57:09;;;;;;;6.97;3.40;;;;;;;;;;5035008;28;20263;-73
2022/04/24 12:59:39;;;;;;;5.82;2.88;;;;;;;;;;5034152;28;20049;-73
2022/04/24 13:02:07;;;;;;;18.13;3.80;;;;;;;;;;5041051;28;20053;-73
2022/04/24 13:04:35;;;;;;;7.13;2.97;;;;;;;;;;5032216;28;20119;-73
2022/04/24 13:07:03;;;;;;;8.82;3.22;;;;;;;;;;5032603;28;20577;-73
2022/04/24 13:09:31;;;;;;;9.18;3.38;;;;;;;;;;5040633;28;20174;-73
2022/04/24 13:12:00;;;;;;;6.18;3.05;;;;;;;;;;5039726;28;20053;-73
2022/04/24 13:14:27;;;;;;;9.18;2.90;;;;;;;;;;5036696;28;20056;-74
2022/04/24 13:19:39;;;;;;;5.82;2.70;;;;;;;;;;5037223;28;20040;-73
2022/04/24 13:22:06;;;;;;;8.02;2.90;;;;;;;;;;5043836;28;20041;-73
2022/04/24 13:24:35;;;;;;;4.47;2.40;;;;;;;;;;5038850;28;20065;-73
2022/04/24 13:27:02;;;;;;;5.15;2.88;;;;;;;;;;5036259;28;20057;-73
2022/04/24 13:29:30;;;;;;;9.93;3.17;;;;;;;;;;5039848;28;20049;-73
2022/04/24 13:31:57;;;;;;;15.30;3.33;;;;;;;;;;5028481;28;20046;-73
2022/04/24 13:34:24;;;;;;;16.15;3.20;;;;;;;;;;5033525;28;20124;-73
2022/04/24 13:38:17;;;;;;;6.70;2.70;;;;;;;;;;5041735;28;20057;-73
2022/04/24 13:39:40;;;;;;;5.18;2.90;;;;;;;;;;5035755;28;20052;-73
2022/04/24 13:42:09;;;;;;;9.27;2.90;;;;;;;;;;5042831;28;20045;-73
2022/04/24 13:44:36;;;;;;;6.40;2.55;;;;;;;;;;5040123;28;20064;-73
2022/04/24 13:47:05;;;;;;;7.00;2.67;;;;;;;;;;5042645;28;20110;-73
2022/04/24 13:49:33;;;;;;;4.13;2.60;;;;;;;;;;5035035;28;20095;-73
2022/04/24 13:52:01;;;;;;;10.13;3.05;;;;;;;;;;5040832;28;20403;-73
2022/04/24 13:54:28;;;;;;;6.03;2.58;;;;;;;;;;5035761;28;20052;-73
2022/04/24 13:56:58;;;;;;;5.03;2.60;;;;;;;;;;5037263;28;20466;-73
2022/04/24 13:59:26;;;;;;;7.57;2.90;;;;;;;;;;5036795;28;20413;-73
2022/04/24 14:01:53;;;;;;;5.03;2.40;;;;;;;;;;5041023;28;20045;-73
2022/04/24 14:04:20;;;;;;;22.33;4.20;;;;;;;;;;5039476;28;20060;-73
2022/04/24 14:06:48;;;;;;;15.50;3.60;;;;;;;;;;5041045;28;20135;-73
2022/04/24 14:09:15;;;;;;;6.75;2.97;;;;;;;;;;5040171;28;20054;-73
2022/04/24 14:11:43;;;;;;;15.65;3.78;;;;;;;;;;5044954;28;20115;-73
2022/04/24 14:14:12;;;;;;;8.02;3.20;;;;;;;;;;5040309;28;20092;-73
2022/04/24 14:16:39;;;;;;;12.27;3.80;;;;;;;;;;5035477;28;20087;-73
2022/04/24 14:19:06;;;;;;;7.57;3.60;;;;;;;;;;5030283;28;20092;-73
2022/04/24 14:21:33;;;;;;;10.20;3.65;;;;;;;;;;5042660;28;20059;-73
2022/04/24 14:24:01;;;;;;;10.27;3.55;;;;;;;;;;5034506;28;20472;-73
2022/04/24 14:26:28;;;;;;;8.88;3.55;;;;;;;;;;5042916;28;20539;-73
2022/04/24 14:28:55;;;;;;;8.82;3.20;;;;;;;;;;5035665;28;20053;-74
2022/04/24 14:31:24;;;;;;;9.15;3.30;;;;;;;;;;5034652;28;20096;-74
2022/04/24 14:33:51;;;;;;;10.68;3.45;;;;;;;;;;5038992;28;20391;-74
2022/04/24 14:36:18;;;;;;;7.93;3.50;;;;;;;;;;5040186;28;20061;-74
2022/04/24 14:38:45;;;;;;;10.65;3.80;;;;;;;;;;5035881;28;20300;-74
2022/04/24 14:41:12;;;;;;;9.98;3.55;;;;;;;;;;5037904;28;20057;-74
2022/04/24 14:43:39;;;;;;;7.47;3.30;;;;;;;;;;5046348;28;20505;-74
2022/04/24 14:57:07;;;;;;;9.63;3.40;;;;;;;;;;5037602;28;20052;-74
2022/04/24 14:59:36;;;;;;;7.68;2.97;;;;;;;;;;5044403;28;20079;-74
2022/04/24 15:02:03;;;;;;;9.68;3.28;;;;;;;;;;5039705;28;20463;-74